Clifton, NJ (07012)

5:15 AM EDT on April 25, 2015 (GMT -0400)
Bolten Pl. | | Change Station
CLOSE
Current Station
Personal Weather Station
Location: Bloomfield, NJ
Elevation: 220 ft
Nearby Weather Stations
Active Advisory: Freeze Warning

Elev 220 ft 40.84 °N, 74.17 °W | Updated 3 seconds ago

Clear
Clear
34.8 °F
Feels Like 35 °F
N
1.0
Wind Variable Wind from NW
Gusts 8.0 mph

Today
High -- | Low -- °F
--% Chance of Precip.
Yesterday
High -- | Low -- °F
Precip. -- in
6:03 AM 7:46 PM
Waxing Crescent, 44% visible
Pressure 29.91 in
Visibility 10.0 miles
Clouds Clear
Windchill 35 °F
Dew Point 25 °F
Humidity 66%
Rainfall 0.00 in
Snow Depth Not available.
UV 0 out of 12
Pollen 11.20 out of 12
Air Quality Not available.
Flu Activity Local Activity
METAR KTEB 250851Z 25004KT 10SM CLR 02/M06 A2991 RMK AO2 SLP128 T00221061 55002

More Conditions Fewer Conditions

Pressure 29.91 in
Visibility 10.0 miles
Clouds Clear
Windchill 35 °F
Dew Point 25 °F
Humidity 66%
Rainfall 0.00 in
Snow Depth Not available.
UV 0 out of 12
Pollen 11.20 out of 12
Air Quality Not available.
Flu Activity Local Activity
METAR KTEB 250851Z 25004KT 10SM CLR 02/M06 A2991 RMK AO2 SLP128 T00221061 55002

More Conditions Fewer Conditions

10-Day Weather Forecast

Almanac

Astronomy

Apr. 25, 2015 Rise Set
Actual Time
Civil Twilight
Nautical Twilight
Astronomical Twilight
Moon
Length of Visible Light
Length of Day
Tomorrow will be .
, % of the Moon is Illuminated

Today's Extremes

State Highs State Lows

Community

WunderPhotos

Upload Photos

1,816,631 photos uploaded!

WunderBlogs® & News

Nearby

Air Quality

  Air Quality AQ Index Pollutant
Not available.

Snow Depth

Station Depth Elevation

Earthquake Activity

City Distance Mag. Time & Date
Minimum magnitude displayed is 2.5.

Coastal Water Temperatures

Place Temperature

Stations

Nearby Weather Stations

Station Location Temp. Windchill Dew Point Humidity Wind Precip. Elev Updated Type
                   
Freeze Warning
Statement as of 3:32 AM EDT on April 25, 2015

... Freeze warning remains in effect until 9 am EDT this morning...

* locations... coastal Connecticut... portions of northeastern New
Jersey and Suffolk County New York.

* Hazards... temperatures falling to freezing or just below.

* Temperatures... upper 20s to lower 30s.

* Timing... this morning.

* Impacts... the sub-freezing temperatures will kill crops and
other sensitive vegetation.